Terminal Aerodrome Forecast
Issued by NWS

Home | Current Version | Previous Version | Text Only | Print | Product List | Glossary On
Versions: 1 2 3 4 5 6 7 8 9 10 11 12 13 14 15 16
000
FTUS41 KBOX 010526
TAFBAF
TAF
KBAF 010526Z 0106/0206 16005KT P6SM BKN200
     FM011300 VRB03KT P6SM -RA OVC070
     FM011700 16007KT 6SM -RA OVC060
     FM012100 14006KT 4SM -RA OVC020
     FM020000 11005KT P6SM VCSH OVC010=

USA.gov is the U.S. government's official web portal to all federal, state and local government web resources and services.